sensor_id;sensor_type;location;lat;lon;timestamp;P1;durP1;ratioP1;P2;durP2;ratioP2
21575;SDS011;10949;27.222;78.010;2022-11-15T06:40:42;128.77;;;91.60;;
21575;SDS011;10949;27.222;78.010;2022-11-15T06:43:38;132.90;;;86.13;;
21575;SDS011;10949;27.222;78.010;2022-11-15T06:46:34;126.32;;;80.85;;
21575;SDS011;10949;27.222;78.010;2022-11-15T06:50:08;113.97;;;73.80;;
21575;SDS011;10949;27.222;78.010;2022-11-15T06:53:29;109.63;;;74.30;;
21575;SDS011;10949;27.222;78.010;2022-11-15T06:56:49;108.65;;;78.22;;
21575;SDS011;10949;27.222;78.010;2022-11-15T07:06:36;112.53;;;77.65;;
21575;SDS011;10949;27.222;78.010;2022-11-15T07:09:39;113.35;;;79.07;;
21575;SDS011;10949;27.222;78.010;2022-11-15T07:12:32;118.00;;;79.35;;
21575;SDS011;10949;27.222;78.010;2022-11-15T07:15:29;111.10;;;77.57;;
21575;SDS011;10949;27.222;78.010;2022-11-15T07:18:23;101.57;;;72.32;;
21575;SDS011;10949;27.222;78.010;2022-11-15T07:21:16;93.90;;;69.63;;
21575;SDS011;10949;27.222;78.010;2022-11-15T07:24:12;100.75;;;67.03;;
21575;SDS011;10949;27.222;78.010;2022-11-15T07:27:02;107.35;;;69.95;;
21575;SDS011;10949;27.222;78.010;2022-11-15T07:29:58;94.28;;;64.50;;
21575;SDS011;10949;27.222;78.010;2022-11-15T07:32:52;93.90;;;67.82;;
21575;SDS011;10949;27.222;78.010;2022-11-15T07:35:48;97.20;;;69.87;;
21575;SDS011;10949;27.222;78.010;2022-11-15T07:39:11;132.75;;;68.22;;
21575;SDS011;10949;27.222;78.010;2022-11-15T07:42:02;111.30;;;73.07;;
21575;SDS011;10949;27.222;78.010;2022-11-15T07:45:16;104.43;;;73.65;;
21575;SDS011;10949;27.222;78.010;2022-11-15T07:48:10;104.68;;;69.00;;
21575;SDS011;10949;27.222;78.010;2022-11-15T07:51:03;94.70;;;69.05;;
21575;SDS011;10949;27.222;78.010;2022-11-15T07:53:59;95.60;;;65.35;;
21575;SDS011;10949;27.222;78.010;2022-11-15T07:56:57;101.90;;;69.72;;
21575;SDS011;10949;27.222;78.010;2022-11-15T07:59:53;107.68;;;72.55;;
21575;SDS011;10949;27.222;78.010;2022-11-15T08:02:48;95.63;;;72.10;;
21575;SDS011;10949;27.222;78.010;2022-11-15T08:05:40;91.28;;;65.70;;
21575;SDS011;10949;27.222;78.010;2022-11-15T08:08:31;100.65;;;67.97;;
21575;SDS011;10949;27.222;78.010;2022-11-15T08:11:23;102.13;;;72.68;;
21575;SDS011;10949;27.222;78.010;2022-11-15T08:14:13;103.32;;;66.70;;
21575;SDS011;10949;27.222;78.010;2022-11-15T08:17:05;102.90;;;68.53;;
21575;SDS011;10949;27.222;78.010;2022-11-15T08:19:58;95.05;;;68.18;;
21575;SDS011;10949;27.222;78.010;2022-11-15T08:22:52;115.72;;;73.38;;
21575;SDS011;10949;27.222;78.010;2022-11-15T08:25:42;138.38;;;74.13;;
21575;SDS011;10949;27.222;78.010;2022-11-15T08:28:34;116.22;;;77.38;;
21575;SDS011;10949;27.222;78.010;2022-11-15T08:31:25;120.32;;;77.00;;
21575;SDS011;10949;27.222;78.010;2022-11-15T08:34:16;113.88;;;79.40;;
21575;SDS011;10949;27.222;78.010;2022-11-15T08:37:08;112.97;;;75.47;;
21575;SDS011;10949;27.222;78.010;2022-11-15T08:39:59;111.07;;;75.60;;
21575;SDS011;10949;27.222;78.010;2022-11-15T08:42:49;105.22;;;77.03;;
21575;SDS011;10949;27.222;78.010;2022-11-15T08:45:39;115.00;;;74.72;;
21575;SDS011;10949;27.222;78.010;2022-11-15T08:48:30;121.90;;;76.03;;
21575;SDS011;10949;27.222;78.010;2022-11-15T08:51:21;113.57;;;74.90;;
21575;SDS011;10949;27.222;78.010;2022-11-15T08:54:13;114.85;;;77.60;;
21575;SDS011;10949;27.222;78.010;2022-11-15T08:57:06;111.07;;;70.22;;
21575;SDS011;10949;27.222;78.010;2022-11-15T08:59:58;112.25;;;76.65;;
21575;SDS011;10949;27.222;78.010;2022-11-15T09:02:49;108.80;;;82.10;;
21575;SDS011;10949;27.222;78.010;2022-11-15T09:05:39;111.55;;;80.38;;
21575;SDS011;10949;27.222;78.010;2022-11-15T09:08:30;114.93;;;83.25;;
21575;SDS011;10949;27.222;78.010;2022-11-15T09:11:35;133.20;;;83.05;;
21575;SDS011;10949;27.222;78.010;2022-11-15T09:14:26;118.78;;;81.25;;
21575;SDS011;10949;27.222;78.010;2022-11-15T09:17:18;122.28;;;84.35;;
21575;SDS011;10949;27.222;78.010;2022-11-15T09:20:10;125.40;;;81.63;;
21575;SDS011;10949;27.222;78.010;2022-11-15T09:23:02;110.18;;;77.78;;
21575;SDS011;10949;27.222;78.010;2022-11-15T09:25:58;114.57;;;78.75;;
21575;SDS011;10949;27.222;78.010;2022-11-15T09:28:52;109.40;;;79.90;;
21575;SDS011;10949;27.222;78.010;2022-11-15T09:31:42;125.78;;;81.43;;
21575;SDS011;10949;27.222;78.010;2022-11-15T09:34:34;117.63;;;81.18;;
21575;SDS011;10949;27.222;78.010;2022-11-15T09:37:25;122.95;;;78.05;;
21575;SDS011;10949;27.222;78.010;2022-11-15T09:40:18;118.65;;;79.97;;
21575;SDS011;10949;27.222;78.010;2022-11-15T09:43:17;112.07;;;83.47;;
21575;SDS011;10949;27.222;78.010;2022-11-15T09:46:22;110.22;;;81.40;;
21575;SDS011;10949;27.222;78.010;2022-11-15T09:49:39;113.00;;;80.63;;
21575;SDS011;10949;27.222;78.010;2022-11-15T09:52:31;112.47;;;81.97;;
21575;SDS011;10949;27.222;78.010;2022-11-15T09:55:26;123.60;;;81.40;;
21575;SDS011;10949;27.222;78.010;2022-11-15T09:58:36;116.03;;;78.03;;
21575;SDS011;10949;27.222;78.010;2022-11-15T10:01:19;114.18;;;74.85;;
21575;SDS011;10949;27.222;78.010;2022-11-15T10:04:20;111.22;;;78.40;;
21575;SDS011;10949;27.222;78.010;2022-11-15T10:06:56;111.82;;;78.93;;
21575;SDS011;10949;27.222;78.010;2022-11-15T10:09:39;112.25;;;72.20;;
21575;SDS011;10949;27.222;78.010;2022-11-15T10:12:30;98.03;;;67.82;;
21575;SDS011;10949;27.222;78.010;2022-11-15T10:15:34;112.55;;;78.25;;
21575;SDS011;10949;27.222;78.010;2022-11-15T10:18:21;110.03;;;81.35;;
21575;SDS011;10949;27.222;78.010;2022-11-15T10:21:21;111.90;;;79.05;;
21575;SDS011;10949;27.222;78.010;2022-11-15T10:24:20;109.60;;;82.10;;
21575;SDS011;10949;27.222;78.010;2022-11-15T10:27:07;105.63;;;77.15;;
21575;SDS011;10949;27.222;78.010;2022-11-15T10:30:11;118.05;;;79.72;;
21575;SDS011;10949;27.222;78.010;2022-11-15T10:32:48;105.38;;;74.43;;
21575;SDS011;10949;27.222;78.010;2022-11-15T10:35:32;108.13;;;74.63;;
21575;SDS011;10949;27.222;78.010;2022-11-15T10:38:35;105.40;;;75.32;;
21575;SDS011;10949;27.222;78.010;2022-11-15T10:41:42;110.65;;;74.43;;
21575;SDS011;10949;27.222;78.010;2022-11-15T10:44:45;111.38;;;76.78;;
21575;SDS011;10949;27.222;78.010;2022-11-15T10:47:33;106.97;;;72.03;;
21575;SDS011;10949;27.222;78.010;2022-11-15T10:56:50;108.68;;;78.30;;
21575;SDS011;10949;27.222;78.010;2022-11-15T10:59:42;115.82;;;74.95;;
21575;SDS011;10949;27.222;78.010;2022-11-15T11:02:41;118.63;;;76.15;;
21575;SDS011;10949;27.222;78.010;2022-11-15T11:05:51;112.70;;;76.45;;
21575;SDS011;10949;27.222;78.010;2022-11-15T11:08:55;117.18;;;71.88;;
21575;SDS011;10949;27.222;78.010;2022-11-15T11:11:45;119.60;;;81.00;;
21575;SDS011;10949;27.222;78.010;2022-11-15T11:14:56;113.00;;;76.07;;
21575;SDS011;10949;27.222;78.010;2022-11-15T11:18:10;110.78;;;77.78;;
21575;SDS011;10949;27.222;78.010;2022-11-15T11:20:58;124.00;;;76.15;;
21575;SDS011;10949;27.222;78.010;2022-11-15T11:23:51;124.47;;;80.85;;
21575;SDS011;10949;27.222;78.010;2022-11-15T11:29:35;107.47;;;74.32;;
21575;SDS011;10949;27.222;78.010;2022-11-15T11:32:53;108.35;;;72.85;;
21575;SDS011;10949;27.222;78.010;2022-11-15T11:35:57;105.07;;;74.90;;
21575;SDS011;10949;27.222;78.010;2022-11-15T11:39:24;97.00;;;68.50;;
21575;SDS011;10949;27.222;78.010;2022-11-15T11:42:33;118.28;;;73.63;;
21575;SDS011;10949;27.222;78.010;2022-11-15T11:45:47;106.70;;;71.77;;
21575;SDS011;10949;27.222;78.010;2022-11-15T11:49:15;108.97;;;70.10;;
21575;SDS011;10949;27.222;78.010;2022-11-15T11:52:29;114.35;;;72.15;;
21575;SDS011;10949;27.222;78.010;2022-11-15T11:55:41;101.93;;;73.22;;
21575;SDS011;10949;27.222;78.010;2022-11-15T11:58:44;111.35;;;76.45;;
21575;SDS011;10949;27.222;78.010;2022-11-15T12:01:46;110.60;;;75.43;;
21575;SDS011;10949;27.222;78.010;2022-11-15T12:05:04;115.28;;;75.15;;
21575;SDS011;10949;27.222;78.010;2022-11-15T12:11:49;120.00;;;76.88;;
21575;SDS011;10949;27.222;78.010;2022-11-15T12:18:08;108.85;;;73.38;;
21575;SDS011;10949;27.222;78.010;2022-11-15T12:21:15;113.50;;;78.55;;
21575;SDS011;10949;27.222;78.010;2022-11-15T17:27:36;337.60;;;236.75;;
21575;SDS011;10949;27.222;78.010;2022-11-15T17:30:09;328.10;;;220.65;;
21575;SDS011;10949;27.222;78.010;2022-11-15T17:32:43;343.50;;;239.43;;
21575;SDS011;10949;27.222;78.010;2022-11-15T17:35:18;338.52;;;248.85;;
21575;SDS011;10949;27.222;78.010;2022-11-15T17:37:50;341.65;;;251.77;;
21575;SDS011;10949;27.222;78.010;2022-11-15T17:40:23;339.67;;;248.55;;
21575;SDS011;10949;27.222;78.010;2022-11-15T17:42:58;354.42;;;250.30;;
21575;SDS011;10949;27.222;78.010;2022-11-15T17:45:33;336.25;;;244.02;;
21575;SDS011;10949;27.222;78.010;2022-11-15T17:48:10;353.35;;;249.23;;
21575;SDS011;10949;27.222;78.010;2022-11-15T17:50:43;347.08;;;247.98;;
21575;SDS011;10949;27.222;78.010;2022-11-15T17:53:27;340.52;;;244.57;;
21575;SDS011;10949;27.222;78.010;2022-11-15T17:56:02;361.10;;;255.23;;
21575;SDS011;10949;27.222;78.010;2022-11-15T17:58:41;359.52;;;257.90;;
21575;SDS011;10949;27.222;78.010;2022-11-15T18:01:19;352.42;;;265.85;;
21575;SDS011;10949;27.222;78.010;2022-11-15T18:03:53;362.13;;;273.60;;
21575;SDS011;10949;27.222;78.010;2022-11-15T18:06:29;353.75;;;252.95;;
21575;SDS011;10949;27.222;78.010;2022-11-15T18:09:02;354.42;;;250.85;;
21575;SDS011;10949;27.222;78.010;2022-11-15T18:11:37;352.05;;;255.00;;
21575;SDS011;10949;27.222;78.010;2022-11-15T18:14:14;342.60;;;243.65;;
21575;SDS011;10949;27.222;78.010;2022-11-15T18:16:46;338.90;;;241.95;;
21575;SDS011;10949;27.222;78.010;2022-11-15T18:19:19;336.33;;;241.43;;
21575;SDS011;10949;27.222;78.010;2022-11-15T18:21:51;352.40;;;267.63;;
21575;SDS011;10949;27.222;78.010;2022-11-15T18:24:27;353.15;;;261.63;;
21575;SDS011;10949;27.222;78.010;2022-11-15T18:27:05;369.73;;;269.08;;
21575;SDS011;10949;27.222;78.010;2022-11-15T18:29:40;356.15;;;267.30;;
21575;SDS011;10949;27.222;78.010;2022-11-15T18:32:13;365.67;;;271.95;;
21575;SDS011;10949;27.222;78.010;2022-11-15T18:34:45;340.95;;;253.98;;
21575;SDS011;10949;27.222;78.010;2022-11-15T18:37:18;337.10;;;258.63;;
21575;SDS011;10949;27.222;78.010;2022-11-15T18:39:50;358.45;;;267.40;;
21575;SDS011;10949;27.222;78.010;2022-11-15T18:42:25;354.60;;;260.60;;
21575;SDS011;10949;27.222;78.010;2022-11-15T18:45:03;330.20;;;248.98;;
21575;SDS011;10949;27.222;78.010;2022-11-15T18:47:35;360.17;;;271.92;;
21575;SDS011;10949;27.222;78.010;2022-11-15T18:50:09;335.23;;;237.35;;
21575;SDS011;10949;27.222;78.010;2022-11-15T18:52:41;345.58;;;248.30;;
21575;SDS011;10949;27.222;78.010;2022-11-15T18:55:14;338.10;;;257.65;;
21575;SDS011;10949;27.222;78.010;2022-11-15T18:57:48;361.42;;;276.45;;
21575;SDS011;10949;27.222;78.010;2022-11-15T19:00:22;337.85;;;254.65;;
21575;SDS011;10949;27.222;78.010;2022-11-15T19:02:54;342.50;;;252.55;;
21575;SDS011;10949;27.222;78.010;2022-11-15T19:05:32;329.58;;;252.50;;
21575;SDS011;10949;27.222;78.010;2022-11-15T19:08:04;351.45;;;260.75;;
21575;SDS011;10949;27.222;78.010;2022-11-15T19:10:37;329.15;;;251.55;;
21575;SDS011;10949;27.222;78.010;2022-11-15T19:13:09;342.15;;;246.05;;
21575;SDS011;10949;27.222;78.010;2022-11-15T19:15:45;336.85;;;250.35;;
21575;SDS011;10949;27.222;78.010;2022-11-15T19:18:17;348.00;;;264.65;;
21575;SDS011;10949;27.222;78.010;2022-11-15T19:20:49;353.88;;;272.25;;
21575;SDS011;10949;27.222;78.010;2022-11-15T19:23:24;345.92;;;261.67;;
21575;SDS011;10949;27.222;78.010;2022-11-15T19:26:00;332.00;;;256.33;;
21575;SDS011;10949;27.222;78.010;2022-11-15T19:28:32;336.90;;;253.45;;
21575;SDS011;10949;27.222;78.010;2022-11-15T19:31:09;346.08;;;266.10;;
21575;SDS011;10949;27.222;78.010;2022-11-15T19:33:44;332.50;;;251.98;;
21575;SDS011;10949;27.222;78.010;2022-11-15T19:36:18;332.67;;;250.10;;
21575;SDS011;10949;27.222;78.010;2022-11-15T19:38:51;320.25;;;247.55;;
21575;SDS011;10949;27.222;78.010;2022-11-15T19:41:25;328.67;;;246.70;;
21575;SDS011;10949;27.222;78.010;2022-11-15T19:43:57;329.52;;;242.32;;
21575;SDS011;10949;27.222;78.010;2022-11-15T19:46:33;334.20;;;240.13;;
21575;SDS011;10949;27.222;78.010;2022-11-15T19:49:06;337.00;;;253.63;;
21575;SDS011;10949;27.222;78.010;2022-11-15T19:51:40;338.95;;;249.75;;
21575;SDS011;10949;27.222;78.010;2022-11-15T19:54:15;349.13;;;263.52;;
21575;SDS011;10949;27.222;78.010;2022-11-15T19:56:49;329.05;;;244.15;;
21575;SDS011;10949;27.222;78.010;2022-11-15T19:59:22;330.92;;;245.55;;
21575;SDS011;10949;27.222;78.010;2022-11-15T20:01:56;332.95;;;251.07;;
21575;SDS011;10949;27.222;78.010;2022-11-15T20:04:30;344.63;;;264.30;;
21575;SDS011;10949;27.222;78.010;2022-11-15T20:07:04;317.65;;;236.18;;
21575;SDS011;10949;27.222;78.010;2022-11-15T20:09:38;331.35;;;245.52;;
21575;SDS011;10949;27.222;78.010;2022-11-15T20:12:10;336.90;;;252.15;;
21575;SDS011;10949;27.222;78.010;2022-11-15T20:14:46;337.95;;;254.43;;
21575;SDS011;10949;27.222;78.010;2022-11-15T20:17:19;332.00;;;244.55;;
21575;SDS011;10949;27.222;78.010;2022-11-15T20:19:53;324.10;;;239.85;;
21575;SDS011;10949;27.222;78.010;2022-11-15T20:22:26;335.20;;;252.07;;
21575;SDS011;10949;27.222;78.010;2022-11-15T20:25:02;332.63;;;255.95;;
21575;SDS011;10949;27.222;78.010;2022-11-15T20:27:34;339.55;;;265.77;;
21575;SDS011;10949;27.222;78.010;2022-11-15T20:30:07;340.65;;;260.10;;
21575;SDS011;10949;27.222;78.010;2022-11-15T20:32:42;320.98;;;237.85;;
21575;SDS011;10949;27.222;78.010;2022-11-15T20:35:15;342.15;;;265.05;;
21575;SDS011;10949;27.222;78.010;2022-11-15T20:37:48;331.48;;;245.45;;
21575;SDS011;10949;27.222;78.010;2022-11-15T20:40:20;326.30;;;235.38;;
21575;SDS011;10949;27.222;78.010;2022-11-15T20:42:52;312.55;;;234.80;;
21575;SDS011;10949;27.222;78.010;2022-11-15T20:45:25;322.50;;;239.05;;
21575;SDS011;10949;27.222;78.010;2022-11-15T20:48:03;338.80;;;255.68;;
21575;SDS011;10949;27.222;78.010;2022-11-15T20:50:37;339.95;;;261.95;;
21575;SDS011;10949;27.222;78.010;2022-11-15T20:53:10;326.20;;;246.73;;
21575;SDS011;10949;27.222;78.010;2022-11-15T20:55:45;326.35;;;238.50;;
21575;SDS011;10949;27.222;78.010;2022-11-15T20:58:19;312.25;;;234.27;;
21575;SDS011;10949;27.222;78.010;2022-11-15T21:00:59;334.05;;;246.73;;
21575;SDS011;10949;27.222;78.010;2022-11-15T21:03:36;346.67;;;262.40;;
21575;SDS011;10949;27.222;78.010;2022-11-15T21:06:09;322.90;;;241.45;;
21575;SDS011;10949;27.222;78.010;2022-11-15T21:08:42;338.58;;;252.48;;
21575;SDS011;10949;27.222;78.010;2022-11-15T21:11:31;328.83;;;256.70;;
21575;SDS011;10949;27.222;78.010;2022-11-15T21:14:20;331.13;;;248.97;;
21575;SDS011;10949;27.222;78.010;2022-11-15T21:16:53;332.50;;;250.02;;
21575;SDS011;10949;27.222;78.010;2022-11-15T21:19:30;328.38;;;242.27;;
21575;SDS011;10949;27.222;78.010;2022-11-15T21:22:06;307.08;;;234.77;;
21575;SDS011;10949;27.222;78.010;2022-11-15T21:24:38;344.13;;;263.65;;
21575;SDS011;10949;27.222;78.010;2022-11-15T21:27:11;343.73;;;253.23;;
21575;SDS011;10949;27.222;78.010;2022-11-15T21:29:47;332.25;;;251.10;;
21575;SDS011;10949;27.222;78.010;2022-11-15T21:32:25;330.15;;;243.88;;
21575;SDS011;10949;27.222;78.010;2022-11-15T21:35:06;340.67;;;269.05;;
21575;SDS011;10949;27.222;78.010;2022-11-15T21:37:40;348.52;;;264.48;;
21575;SDS011;10949;27.222;78.010;2022-11-15T21:40:20;335.90;;;252.18;;
21575;SDS011;10949;27.222;78.010;2022-11-15T21:49:41;330.05;;;238.30;;
21575;SDS011;10949;27.222;78.010;2022-11-15T21:52:25;319.58;;;239.95;;
21575;SDS011;10949;27.222;78.010;2022-11-15T21:54:58;322.88;;;235.70;;
21575;SDS011;10949;27.222;78.010;2022-11-15T21:57:30;318.55;;;235.40;;
21575;SDS011;10949;27.222;78.010;2022-11-15T22:00:05;322.17;;;242.90;;
21575;SDS011;10949;27.222;78.010;2022-11-15T22:02:55;337.77;;;247.43;;
21575;SDS011;10949;27.222;78.010;2022-11-15T22:05:27;310.45;;;228.25;;
21575;SDS011;10949;27.222;78.010;2022-11-15T22:08:01;319.90;;;237.98;;
21575;SDS011;10949;27.222;78.010;2022-11-15T22:10:34;320.10;;;234.50;;
21575;SDS011;10949;27.222;78.010;2022-11-15T22:13:07;311.02;;;227.93;;
21575;SDS011;10949;27.222;78.010;2022-11-15T22:15:43;330.53;;;247.40;;
21575;SDS011;10949;27.222;78.010;2022-11-15T22:18:17;325.67;;;251.43;;
21575;SDS011;10949;27.222;78.010;2022-11-15T22:20:53;323.65;;;249.05;;
21575;SDS011;10949;27.222;78.010;2022-11-15T22:23:28;330.95;;;247.65;;
21575;SDS011;10949;27.222;78.010;2022-11-15T22:26:03;316.83;;;235.30;;
21575;SDS011;10949;27.222;78.010;2022-11-15T22:28:36;335.40;;;255.80;;
21575;SDS011;10949;27.222;78.010;2022-11-15T22:31:09;340.25;;;248.93;;
21575;SDS011;10949;27.222;78.010;2022-11-15T22:33:42;326.55;;;260.45;;
21575;SDS011;10949;27.222;78.010;2022-11-15T22:36:15;330.25;;;255.60;;
21575;SDS011;10949;27.222;78.010;2022-11-15T22:38:50;312.05;;;228.18;;
21575;SDS011;10949;27.222;78.010;2022-11-15T22:41:22;301.45;;;223.80;;
21575;SDS011;10949;27.222;78.010;2022-11-15T22:43:55;321.80;;;235.75;;
21575;SDS011;10949;27.222;78.010;2022-11-15T22:46:28;315.58;;;240.10;;
21575;SDS011;10949;27.222;78.010;2022-11-15T22:49:01;322.42;;;233.13;;
21575;SDS011;10949;27.222;78.010;2022-11-15T22:51:35;329.30;;;241.05;;
21575;SDS011;10949;27.222;78.010;2022-11-15T22:54:14;315.00;;;233.40;;
21575;SDS011;10949;27.222;78.010;2022-11-15T22:56:47;306.42;;;222.13;;
21575;SDS011;10949;27.222;78.010;2022-11-15T22:59:24;318.65;;;236.07;;
21575;SDS011;10949;27.222;78.010;2022-11-15T23:01:57;324.15;;;233.48;;
21575;SDS011;10949;27.222;78.010;2022-11-15T23:04:29;322.88;;;240.00;;
21575;SDS011;10949;27.222;78.010;2022-11-15T23:07:02;314.13;;;233.98;;
21575;SDS011;10949;27.222;78.010;2022-11-15T23:09:41;296.00;;;222.10;;
21575;SDS011;10949;27.222;78.010;2022-11-15T23:12:19;293.45;;;215.50;;
21575;SDS011;10949;27.222;78.010;2022-11-15T23:15:10;327.05;;;240.52;;
21575;SDS011;10949;27.222;78.010;2022-11-15T23:17:44;317.30;;;234.88;;
21575;SDS011;10949;27.222;78.010;2022-11-15T23:20:16;316.40;;;242.82;;
21575;SDS011;10949;27.222;78.010;2022-11-15T23:23:09;318.00;;;235.07;;
21575;SDS011;10949;27.222;78.010;2022-11-15T23:25:42;327.17;;;244.00;;
21575;SDS011;10949;27.222;78.010;2022-11-15T23:28:15;300.58;;;222.80;;
21575;SDS011;10949;27.222;78.010;2022-11-15T23:30:47;300.17;;;224.35;;
21575;SDS011;10949;27.222;78.010;2022-11-15T23:33:37;305.63;;;225.93;;
21575;SDS011;10949;27.222;78.010;2022-11-15T23:36:37;303.52;;;221.88;;
21575;SDS011;10949;27.222;78.010;2022-11-15T23:39:12;310.30;;;231.82;;
21575;SDS011;10949;27.222;78.010;2022-11-15T23:41:49;311.13;;;229.43;;
21575;SDS011;10949;27.222;78.010;2022-11-15T23:44:22;304.98;;;226.18;;
21575;SDS011;10949;27.222;78.010;2022-11-15T23:46:56;293.67;;;225.35;;
21575;SDS011;10949;27.222;78.010;2022-11-15T23:49:28;303.65;;;216.88;;
21575;SDS011;10949;27.222;78.010;2022-11-15T23:52:01;312.17;;;235.48;;
21575;SDS011;10949;27.222;78.010;2022-11-15T23:54:34;309.63;;;236.05;;
21575;SDS011;10949;27.222;78.010;2022-11-15T23:57:08;314.92;;;236.43;;
21575;SDS011;10949;27.222;78.010;2022-11-15T23:59:41;304.95;;;225.48;;
